Time;durP1;ratioP1;P1;durP2;ratioP2;P2;SDS_P1;SDS_P2;PMS_P1;PMS_P2;Temp;Humidity;BMP_temperature;BMP_pressure;BME280_temperature;BME280_humidity;BME280_pressure;Samples;Min_cycle;Max_cycle;Signal;HPM_P1;HPM_P2
2022/10/28 00:01:16;;;;;;;4.35;2.22;;;;;;;14.14;43.45;95073.50;5016721;28;20552;-77
2022/10/28 00:03:44;;;;;;;6.68;1.73;;;;;;;14.05;43.61;95065.41;5035854;28;20035;-77
2022/10/28 00:06:13;;;;;;;3.55;1.73;;;;;;;14.01;43.38;95053.75;5035548;28;20029;-77
2022/10/28 00:08:38;;;;;;;2.45;1.73;;;;;;;14.05;43.34;95053.91;5032703;28;20220;-77
2022/10/28 00:11:10;;;;;;;1.67;1.42;;;;;;;14.10;43.44;95065.28;5018790;28;20029;-77
2022/10/28 00:13:36;;;;;;;1.92;1.50;;;;;;;14.19;43.50;95078.72;5036622;28;20064;-77
2022/10/28 00:16:23;;;;;;;3.08;1.75;;;;;;;14.18;43.55;95075.25;5035598;28;20413;-77
2022/10/28 00:18:51;;;;;;;2.17;1.40;;;;;;;14.13;43.76;95077.28;5037427;28;20054;-77
2022/10/28 00:21:25;;;;;;;3.95;1.95;;;;;;;14.14;43.58;95070.81;5034440;28;20025;-76
2022/10/28 00:23:51;;;;;;;2.50;1.60;;;;;;;13.82;43.38;95022.94;5034919;28;20028;-75
2022/10/28 00:26:30;;;;;;;2.95;1.80;;;;;;;13.87;44.00;95046.88;5013549;28;20029;-77
2022/10/28 00:29:04;;;;;;;2.42;1.50;;;;;;;13.80;43.73;95031.25;5037993;28;20056;-77
2022/10/28 00:31:31;;;;;;;3.60;1.55;;;;;;;13.98;43.61;95058.91;5035211;28;20017;-77
2022/10/28 00:34:02;;;;;;;2.55;1.55;;;;;;;13.97;43.67;95063.47;5020536;28;20567;-78
2022/10/28 00:36:30;;;;;;;1.98;1.73;;;;;;;13.90;44.06;95057.75;5034948;28;20025;-77
2022/10/28 00:38:57;;;;;;;2.42;1.48;;;;;;;13.83;44.00;95052.03;5037275;28;20036;-76
2022/10/28 00:41:27;;;;;;;3.10;1.35;;;;;;;13.86;43.96;95062.13;5039417;28;20809;-77
2022/10/28 00:43:55;;;;;;;5.40;1.60;;;;;;;13.65;44.15;95045.75;5041588;28;20079;-76
2022/10/28 00:46:29;;;;;;;2.83;1.60;;;;;;;13.77;44.15;95068.50;5039882;28;20093;-77
2022/10/28 00:49:21;;;;;;;3.67;1.90;;;;;;;13.78;44.29;95059.41;5040554;28;20086;-77
2022/10/28 00:51:50;;;;;;;2.05;1.75;;;;;;;13.74;44.52;95065.31;5040687;28;20040;-77
2022/10/28 00:54:17;;;;;;;2.55;1.42;;;;;;;13.62;44.29;95041.03;5039631;28;20459;-77
2022/10/28 00:56:47;;;;;;;2.75;1.80;;;;;;;13.52;44.34;95035.88;5022158;28;20027;-77
2022/10/28 00:59:21;;;;;;;2.70;1.40;;;;;;;13.67;44.40;95064.97;5039851;28;20099;-77
2022/10/28 01:01:47;;;;;;;4.20;1.80;;;;;;;13.59;44.51;95054.22;5039724;28;20032;-77
2022/10/28 01:04:13;;;;;;;6.28;2.17;;;;;;;13.37;44.44;95033.53;5021260;28;20025;-77
2022/10/28 01:06:40;;;;;;;4.85;1.75;;;;;;;13.47;44.63;95054.69;5041070;28;21170;-78
2022/10/28 01:09:05;;;;;;;3.50;1.73;;;;;;;13.34;44.74;95028.81;5039957;28;20627;-77
2022/10/28 01:11:54;;;;;;;9.25;2.05;;;;;;;13.48;44.98;95061.63;5026115;28;20085;-77
2022/10/28 01:14:55;;;;;;;3.78;1.70;;;;;;;13.48;44.77;95068.84;5025461;28;20069;-78
2022/10/28 01:17:39;;;;;;;2.38;1.70;;;;;;;13.46;44.96;95061.13;5007060;28;20509;-78
2022/10/28 01:20:10;;;;;;;3.33;1.70;;;;;;;13.44;44.87;95057.19;5036400;28;20025;-75
2022/10/28 01:23:20;;;;;;;2.30;1.55;;;;;;;13.23;45.15;95044.25;5039629;28;20323;-77
2022/10/28 01:26:04;;;;;;;2.33;1.67;;;;;;;13.29;45.29;95058.31;4958358;28;20114;-75
2022/10/28 01:28:54;;;;;;;2.63;1.50;;;;;;;13.26;45.04;95058.88;5020346;28;20090;-76
2022/10/28 01:31:19;;;;;;;2.70;1.77;;;;;;;13.22;45.51;95063.25;5040078;28;20036;-76
2022/10/28 01:34:17;;;;;;;5.43;1.90;;;;;;;13.18;45.39;95063.06;5032320;28;20045;-77
2022/10/28 01:36:58;;;;;;;3.47;2.10;;;;;;;13.07;45.40;95044.84;5010625;28;20060;-76
2022/10/28 01:39:23;;;;;;;3.90;1.98;;;;;;;13.17;45.56;95061.47;5021643;28;20542;-77
2022/10/28 01:41:48;;;;;;;4.32;1.60;;;;;;;13.19;45.57;95069.19;5038323;28;20119;-77
2022/10/28 01:44:33;;;;;;;3.92;2.08;;;;;;;13.08;45.48;95046.44;5039888;28;20025;-76
2022/10/28 01:46:58;;;;;;;3.00;1.85;;;;;;;13.18;45.53;95062.25;5038455;28;20039;-76
2022/10/28 01:49:38;;;;;;;2.38;1.85;;;;;;;13.14;45.68;95063.97;5038985;28;20025;-77
2022/10/28 01:52:07;;;;;;;7.28;2.33;;;;;;;13.11;45.82;95064.53;5038949;28;20200;-76
2022/10/28 01:54:34;;;;;;;3.15;2.33;;;;;;;12.98;45.84;95046.66;5039258;28;20446;-76
2022/10/28 01:57:03;;;;;;;3.53;2.20;;;;;;;12.91;45.71;95038.25;5039065;28;20083;-77
2022/10/28 01:59:31;;;;;;;4.55;2.22;;;;;;;12.92;45.87;95047.84;5038930;28;20029;-75
2022/10/28 02:01:57;;;;;;;8.63;2.00;;;;;;;12.78;45.92;95032.63;5039418;28;20057;-75
2022/10/28 02:04:22;;;;;;;3.78;2.08;;;;;;;12.95;45.71;95055.28;5038722;28;20128;-76
2022/10/28 02:06:52;;;;;;;4.55;1.75;;;;;;;12.84;45.96;95038.66;5039249;28;20140;-76
2022/10/28 02:09:29;;;;;;;4.97;2.33;;;;;;;13.02;45.77;95060.97;5036985;28;20090;-75
2022/10/28 02:12:37;;;;;;;2.53;1.77;;;;;;;12.99;46.01;95059.72;5038893;28;20116;-76
2022/10/28 02:15:39;;;;;;;2.25;1.80;;;;;;;12.99;46.03;95058.91;5029502;28;20507;-76
2022/10/28 02:18:30;;;;;;;3.38;1.85;;;;;;;12.95;45.87;95055.28;5033257;28;20052;-76
2022/10/28 02:21:17;;;;;;;2.95;1.67;;;;;;;12.87;45.94;95060.19;4992631;28;20048;-76
2022/10/28 02:24:02;;;;;;;2.40;1.40;;;;;;;12.89;46.08;95066.06;5038293;28;20226;-75
2022/10/28 02:26:36;;;;;;;5.75;2.17;;;;;;;12.85;45.89;95067.72;5038668;28;20032;-75
2022/10/28 02:29:04;;;;;;;2.15;1.30;;;;;;;12.82;45.85;95065.63;5019773;28;20033;-78
2022/10/28 02:31:52;;;;;;;1.80;1.25;;;;;;;12.80;45.94;95067.03;5038268;28;20025;-77
2022/10/28 02:34:32;;;;;;;2.58;1.65;;;;;;;12.67;45.82;95052.56;5037877;28;20546;-77
2022/10/28 02:37:00;;;;;;;4.93;1.65;;;;;;;12.76;46.22;95076.72;5038751;28;20120;-77
2022/10/28 02:39:31;;;;;;;2.30;1.40;;;;;;;12.52;45.84;95034.16;5019844;28;20396;-78
2022/10/28 02:42:05;;;;;;;2.70;1.52;;;;;;;12.72;45.56;95073.84;5038335;28;20028;-76
2022/10/28 02:44:37;;;;;;;3.35;1.80;;;;;;;12.64;45.78;95074.53;5037980;28;20025;-77
2022/10/28 02:47:08;;;;;;;3.80;1.77;;;;;;;12.61;46.11;95080.47;5021655;28;20051;-77
2022/10/28 02:49:36;;;;;;;6.45;1.63;;;;;;;12.58;46.03;95081.03;5037110;28;20025;-77
2022/10/28 02:52:05;;;;;;;1.73;1.33;;;;;;;12.36;45.91;95057.66;5035947;28;20037;-76
2022/10/28 02:54:46;;;;;;;4.13;1.70;;;;;;;12.52;46.20;95084.84;5019913;28;20024;-77
2022/10/28 02:57:16;;;;;;;3.10;1.45;;;;;;;12.21;46.20;95038.47;5013756;28;20025;-77
2022/10/28 02:59:41;;;;;;;4.18;1.83;;;;;;;12.44;46.20;95074.88;5037556;28;20485;-78
2022/10/28 03:02:07;;;;;;;2.67;1.63;;;;;;;12.27;46.35;95053.31;5037059;28;20029;-76
2022/10/28 03:04:33;;;;;;;2.03;1.10;;;;;;;12.33;46.02;95073.44;5037391;28;20024;-77
2022/10/28 03:06:58;;;;;;;3.15;1.30;;;;;;;12.34;46.46;95078.50;5037541;28;20463;-77
2022/10/28 03:09:24;;;;;;;8.50;1.33;;;;;;;12.27;46.29;95061.31;5019427;28;20831;-77
2022/10/28 03:11:49;;;;;;;1.98;1.30;;;;;;;12.18;46.57;95060.38;5037869;28;20081;-78
2022/10/28 03:14:14;;;;;;;2.78;1.48;;;;;;;12.13;46.37;95052.44;5038309;28;20032;-77
2022/10/28 03:16:40;;;;;;;3.30;1.42;;;;;;;12.11;46.10;95041.31;5035772;28;20161;-78
2022/10/28 03:19:05;;;;;;;4.80;2.05;;;;;;;11.96;46.47;95024.47;5038454;28;20029;-77
2022/10/28 03:21:31;;;;;;;6.47;1.98;;;;;;;12.16;46.64;95063.34;5037617;28;20465;-77
2022/10/28 03:23:56;;;;;;;3.53;1.60;;;;;;;12.01;46.58;95051.06;5036842;28;20055;-78
2022/10/28 03:26:21;;;;;;;2.47;1.77;;;;;;;12.17;46.30;95080.16;5037439;28;20056;-77
2022/10/28 03:28:47;;;;;;;4.18;1.73;;;;;;;11.99;46.67;95055.88;5037947;28;20139;-77
2022/10/28 03:31:14;;;;;;;4.30;2.63;;;;;;;12.11;46.85;95084.75;5037092;28;20016;-77
2022/10/28 03:33:39;;;;;;;3.08;1.70;;;;;;;12.09;46.73;95080.78;5038318;28;20025;-77
2022/10/28 03:36:05;;;;;;;3.03;2.08;;;;;;;12.07;46.74;95080.31;5035099;28;20056;-77
2022/10/28 03:38:30;;;;;;;3.17;1.65;;;;;;;12.06;46.96;95084.06;5038334;28;20025;-78
2022/10/28 03:40:55;;;;;;;3.13;1.63;;;;;;;11.94;47.17;95066.63;5037272;28;20041;-77
2022/10/28 03:43:21;;;;;;;3.85;1.88;;;;;;;11.86;47.02;95059.28;5035847;28;20563;-77
2022/10/28 03:45:46;;;;;;;5.55;2.13;;;;;;;11.39;47.14;94984.84;5036305;28;20028;-77
2022/10/28 03:48:12;;;;;;;2.47;2.05;;;;;;;11.99;46.98;95081.75;5038311;28;20102;-78
2022/10/28 03:50:37;;;;;;;3.70;2.17;;;;;;;11.99;46.80;95073.75;5035293;28;20096;-78
2022/10/28 03:53:03;;;;;;;2.83;1.85;;;;;;;11.88;47.04;95070.44;5038025;28;20024;-77
2022/10/28 03:55:28;;;;;;;3.45;1.83;;;;;;;11.93;46.92;95086.34;5037444;28;20634;-77
2022/10/28 03:57:53;;;;;;;5.38;1.80;;;;;;;11.72;47.10;95055.00;5017117;28;20031;-77
2022/10/28 04:00:19;;;;;;;2.78;1.90;;;;;;;11.84;47.30;95077.44;5036901;28;20149;-78
2022/10/28 04:02:51;;;;;;;3.92;2.10;;;;;;;11.63;47.29;95049.53;5036846;28;20128;-78
2022/10/28 04:05:18;;;;;;;3.00;1.75;;;;;;;11.72;47.42;95069.09;5036014;28;20032;-76
2022/10/28 04:07:43;;;;;;;4.43;1.98;;;;;;;11.65;47.39;95058.00;5035794;28;20115;-76
2022/10/28 04:10:09;;;;;;;2.50;1.50;;;;;;;11.67;47.45;95066.53;5034423;28;20051;-77
2022/10/28 04:12:35;;;;;;;4.88;1.40;;;;;;;11.72;47.38;95082.44;5036366;28;20028;-76
2022/10/28 04:15:00;;;;;;;4.22;1.90;;;;;;;11.58;47.04;95074.38;5036090;28;20024;-77
2022/10/28 04:17:26;;;;;;;5.32;2.13;;;;;;;11.49;47.41;95061.97;5036140;28;20469;-78
2022/10/28 04:19:51;;;;;;;3.45;2.08;;;;;;;11.39;47.27;95051.44;5036128;28;20036;-76
2022/10/28 04:22:16;;;;;;;4.32;1.92;;;;;;;11.56;47.50;95086.38;5036599;28;20146;-77
2022/10/28 04:24:42;;;;;;;3.40;2.00;;;;;;;11.41;47.48;95067.91;5035736;28;20102;-77
2022/10/28 04:27:07;;;;;;;2.70;1.65;;;;;;;11.53;47.59;95093.09;5036596;28;20294;-77
2022/10/28 04:29:32;;;;;;;4.65;2.40;;;;;;;11.58;47.52;95094.91;5036428;28;20029;-77
2022/10/28 04:31:58;;;;;;;8.98;2.00;;;;;;;11.48;47.63;95079.81;5035911;28;20033;-78
2022/10/28 04:34:24;;;;;;;5.82;2.50;;;;;;;11.46;48.05;95083.84;5036528;28;20529;-78
2022/10/28 04:36:49;;;;;;;4.32;1.90;;;;;;;11.56;47.41;95095.19;5036803;28;20028;-77
2022/10/28 04:39:15;;;;;;;12.25;3.28;;;;;;;11.48;47.59;95087.00;5036154;28;20036;-77
2022/10/28 04:41:40;;;;;;;6.43;2.67;;;;;;;11.49;47.48;95091.28;5034334;28;20449;-77
2022/10/28 04:44:06;;;;;;;4.82;2.80;;;;;;;11.18;47.46;95050.91;5036296;28;20039;-77
2022/10/28 04:46:31;;;;;;;6.82;2.70;;;;;;;11.39;47.74;95088.75;5037034;28;20048;-77
2022/10/28 04:48:56;;;;;;;3.72;2.70;;;;;;;11.23;48.13;95069.50;5035023;28;20075;-78
2022/10/28 04:51:22;;;;;;;4.63;3.17;;;;;;;11.32;47.86;95086.41;5035345;28;20040;-76
2022/10/28 04:53:47;;;;;;;5.82;4.78;;;;;;;11.33;47.87;95087.22;5034747;28;20507;-77
2022/10/28 04:56:12;;;;;;;7.88;5.55;;;;;;;11.24;48.33;95075.63;5035024;28;20036;-76
2022/10/28 04:58:38;;;;;;;11.73;5.60;;;;;;;10.98;48.12;95035.19;5035379;28;20248;-77
2022/10/28 05:01:05;;;;;;;9.07;6.30;;;;;;;11.31;48.04;95089.34;5035913;28;20021;-78
2022/10/28 05:03:30;;;;;;;12.45;5.07;;;;;;;11.30;48.31;95091.22;5036157;28;20085;-77
2022/10/28 05:05:56;;;;;;;4.85;4.35;;;;;;;11.30;47.98;95087.75;5036079;28;20029;-77
2022/10/28 05:08:21;;;;;;;6.03;3.58;;;;;;;11.16;48.13;95071.72;5034397;28;20083;-77
2022/10/28 05:10:49;;;;;;;10.43;2.55;;;;;;;11.12;48.27;95066.16;5036974;28;20560;-77
2022/10/28 05:13:15;;;;;;;7.45;2.53;;;;;;;11.23;48.43;95079.34;5036003;28;20021;-77
2022/10/28 05:15:41;;;;;;;5.53;2.80;;;;;;;11.13;48.39;95067.75;5033608;28;20075;-77
2022/10/28 05:18:06;;;;;;;4.65;2.63;;;;;;;11.15;48.68;95068.25;5036825;28;20138;-78
2022/10/28 05:20:31;;;;;;;10.55;2.88;;;;;;;11.26;48.88;95092.09;5035375;28;20032;-77
2022/10/28 05:22:57;;;;;;;9.52;2.78;;;;;;;11.29;48.89;95099.53;5035834;28;20029;-77
2022/10/28 05:25:22;;;;;;;3.67;2.83;;;;;;;11.34;48.77;95110.13;5015882;28;20025;-77
2022/10/28 05:27:48;;;;;;;13.45;3.08;;;;;;;11.28;48.68;95100.59;5033176;28;20029;-77
2022/10/28 05:30:14;;;;;;;7.43;2.90;;;;;;;11.35;49.05;95111.69;5021122;28;20020;-77
2022/10/28 05:32:39;;;;;;;7.47;2.42;;;;;;;11.36;48.87;95113.25;5040745;28;20040;-77
2022/10/28 05:35:05;;;;;;;8.60;3.28;;;;;;;11.25;48.83;95093.97;5040610;28;20021;-78
2022/10/28 05:37:31;;;;;;;7.75;3.08;;;;;;;11.37;48.82;95113.00;5039380;28;20362;-78
2022/10/28 05:39:56;;;;;;;7.55;3.30;;;;;;;11.31;49.02;95094.69;5040262;28;20575;-77
2022/10/28 05:42:21;;;;;;;11.55;3.75;;;;;;;11.31;49.11;95100.00;5038511;28;20389;-77
2022/10/28 05:44:47;;;;;;;7.95;4.07;;;;;;;11.35;49.15;95101.03;5040486;28;20662;-77
2022/10/28 05:47:12;;;;;;;11.15;5.00;;;;;;;11.44;49.27;95112.66;5039272;28;20037;-76
2022/10/28 05:49:37;;;;;;;7.13;4.15;;;;;;;11.45;49.05;95112.34;5038521;28;20828;-77
2022/10/28 05:52:03;;;;;;;13.57;4.32;;;;;;;11.26;49.11;95076.09;5038709;28;20044;-77
2022/10/28 05:54:28;;;;;;;13.35;4.93;;;;;;;11.48;49.47;95117.13;5038678;28;20040;-78
2022/10/28 05:56:54;;;;;;;16.50;6.43;;;;;;;11.54;49.50;95117.88;5039250;28;20029;-77
2022/10/28 05:59:19;;;;;;;18.90;6.15;;;;;;;11.52;49.37;95101.38;5037273;28;20688;-77
2022/10/28 06:01:44;;;;;;;14.82;6.53;;;;;;;11.75;49.21;95116.50;5037064;28;20508;-77
2022/10/28 06:04:10;;;;;;;16.13;6.82;;;;;;;11.81;49.22;95120.69;5039629;28;20124;-77
2022/10/28 06:06:35;;;;;;;16.90;7.13;;;;;;;11.68;49.11;95097.41;5039063;28;20033;-77
2022/10/28 06:09:00;;;;;;;18.30;6.97;;;;;;;11.89;49.11;95120.00;5038701;28;20547;-78
2022/10/28 06:11:26;;;;;;;13.10;5.53;;;;;;;11.86;49.20;95111.81;5021060;28;20033;-78
2022/10/28 06:13:51;;;;;;;14.52;6.65;;;;;;;11.88;49.15;95123.75;5036990;28;20025;-78
2022/10/28 06:16:17;;;;;;;16.15;7.03;;;;;;;11.92;49.10;95118.66;5038761;28;20416;-76
2022/10/28 06:18:42;;;;;;;16.15;7.60;;;;;;;12.09;48.84;95137.59;5037640;28;20036;-77
2022/10/28 06:21:08;;;;;;;18.55;8.30;;;;;;;12.22;48.94;95146.75;5036544;28;20024;-77
2022/10/28 06:23:33;;;;;;;20.27;8.48;;;;;;;12.33;48.98;95159.59;5036490;28;20119;-77
2022/10/28 06:26:00;;;;;;;14.68;8.20;;;;;;;12.40;48.87;95159.25;5014321;28;20033;-78
2022/10/28 06:28:26;;;;;;;19.83;7.53;;;;;;;12.46;48.46;95163.44;5037129;28;20021;-77
2022/10/28 06:30:52;;;;;;;12.80;7.93;;;;;;;12.34;48.19;95145.19;5036435;28;20581;-78
2022/10/28 06:33:17;;;;;;;13.18;8.05;;;;;;;12.45;48.35;95159.97;5038251;28;20282;-77
2022/10/28 06:35:43;;;;;;;13.18;6.78;;;;;;;12.39;48.50;95163.00;5036328;28;20285;-77
2022/10/28 06:38:08;;;;;;;10.68;6.25;;;;;;;12.53;48.23;95163.81;5037215;28;20025;-77
2022/10/28 06:40:34;;;;;;;11.63;6.30;;;;;;;12.31;48.00;95129.00;5038268;28;20426;-77
2022/10/28 06:43:01;;;;;;;12.27;6.15;;;;;;;12.20;48.16;95095.56;5036619;28;20110;-77
2022/10/28 06:45:28;;;;;;;14.10;7.10;;;;;;;12.58;48.10;95144.28;5037001;28;20033;-77
2022/10/28 06:47:55;;;;;;;10.77;7.18;;;;;;;12.52;47.66;95138.22;5037307;28;20056;-77
2022/10/28 06:50:21;;;;;;;17.27;7.78;;;;;;;12.62;47.80;95132.75;5036515;28;20068;-77
2022/10/28 06:52:46;;;;;;;12.43;7.32;;;;;;;12.72;47.82;95143.25;5038620;28;20503;-77
2022/10/28 06:55:11;;;;;;;9.90;6.75;;;;;;;12.55;48.00;95118.97;5036504;28;20558;-77
2022/10/28 06:57:37;;;;;;;12.50;6.22;;;;;;;12.62;47.70;95139.94;5036142;28;20431;-77
2022/10/28 07:00:04;;;;;;;9.63;5.68;;;;;;;12.77;47.61;95131.69;5035746;28;20764;-78
2022/10/28 07:02:29;;;;;;;12.35;6.53;;;;;;;12.70;47.61;95124.06;5035709;28;20888;-77
2022/10/28 07:04:54;;;;;;;11.57;5.75;;;;;;;12.74;47.73;95133.06;5037928;28;20535;-78
2022/10/28 07:07:20;;;;;;;10.25;6.38;;;;;;;12.99;47.89;95145.16;5035222;28;20033;-77
2022/10/28 07:09:45;;;;;;;13.98;7.03;;;;;;;12.91;47.71;95153.84;5037232;28;20705;-77
2022/10/28 07:12:11;;;;;;;15.07;6.70;;;;;;;12.96;47.77;95153.75;5033264;28;20025;-77
2022/10/28 07:14:36;;;;;;;12.30;7.45;;;;;;;12.76;47.68;95136.22;5035611;28;20028;-77
2022/10/28 07:17:01;;;;;;;13.38;6.45;;;;;;;12.85;47.50;95161.19;5037590;28;20505;-77
2022/10/28 07:19:27;;;;;;;13.25;7.95;;;;;;;12.87;47.33;95155.53;5036074;28;20036;-76
2022/10/28 07:21:52;;;;;;;24.52;7.13;;;;;;;13.06;47.28;95161.59;5033957;28;20067;-77
2022/10/28 07:24:17;;;;;;;15.25;7.63;;;;;;;12.77;47.17;95110.31;5031686;28;20436;-77
2022/10/28 07:26:43;;;;;;;14.77;7.10;;;;;;;13.10;47.10;95135.09;5032415;28;20025;-77
2022/10/28 07:29:08;;;;;;;11.88;7.65;;;;;;;13.22;46.82;95159.41;5032713;28;20500;-77
2022/10/28 07:31:34;;;;;;;13.73;7.68;;;;;;;12.89;47.09;95130.13;5032770;28;20438;-77
2022/10/28 07:33:59;;;;;;;16.30;7.00;;;;;;;13.02;47.09;95143.78;5032519;28;20962;-78
2022/10/28 07:36:24;;;;;;;13.50;8.18;;;;;;;13.04;46.61;95130.94;5008583;28;20861;-77
2022/10/28 07:38:51;;;;;;;13.55;7.85;;;;;;;13.10;46.66;95143.09;5007527;28;20031;-78
2022/10/28 07:41:19;;;;;;;15.18;8.18;;;;;;;13.10;46.28;95143.91;5032453;28;20111;-78
2022/10/28 07:43:46;;;;;;;11.38;7.53;;;;;;;13.24;46.65;95146.56;5031477;28;20146;-79
2022/10/28 07:46:12;;;;;;;13.68;7.97;;;;;;;13.25;46.89;95126.78;5032342;28;20016;-77
2022/10/28 07:48:38;;;;;;;17.05;7.75;;;;;;;13.33;46.42;95144.78;5031656;28;20051;-77
2022/10/28 07:51:06;;;;;;;14.23;7.75;;;;;;;13.41;46.62;95156.66;5030517;28;20104;-78
2022/10/28 07:53:31;;;;;;;16.10;8.18;;;;;;;13.51;46.25;95153.75;5031541;28;20032;-77
2022/10/28 07:55:59;;;;;;;11.90;8.02;;;;;;;13.64;46.02;95148.44;5030486;28;20045;-77
2022/10/28 07:58:25;;;;;;;13.38;7.82;;;;;;;13.69;45.73;95148.31;5031564;28;20040;-77
2022/10/28 08:00:51;;;;;;;26.02;8.52;;;;;;;13.83;46.04;95152.88;5031796;28;20020;-77
2022/10/28 08:03:16;;;;;;;17.98;7.75;;;;;;;13.70;46.57;95123.16;5031831;28;20029;-77
2022/10/28 08:05:42;;;;;;;15.27;7.60;;;;;;;13.55;45.90;95110.09;5032049;28;20020;-76
2022/10/28 08:08:07;;;;;;;13.02;7.78;;;;;;;13.51;46.34;95129.72;5031442;28;20116;-78
2022/10/28 08:10:32;;;;;;;12.65;7.72;;;;;;;13.57;45.85;95133.88;5031242;28;20016;-78
2022/10/28 08:12:59;;;;;;;12.88;7.25;;;;;;;13.82;46.01;95138.72;5031204;28;20041;-76
2022/10/28 08:15:25;;;;;;;10.27;6.82;;;;;;;13.71;45.99;95140.81;5030953;28;20025;-78
2022/10/28 08:17:51;;;;;;;11.13;7.72;;;;;;;13.89;45.86;95149.75;5030005;28;20052;-76
2022/10/28 08:20:17;;;;;;;13.40;7.95;;;;;;;13.98;45.65;95141.84;5031958;28;20037;-77
2022/10/28 08:22:42;;;;;;;17.15;7.75;;;;;;;14.17;45.60;95158.53;5022520;28;20082;-77
2022/10/28 08:25:08;;;;;;;17.58;8.00;;;;;;;14.05;45.46;95156.38;5032574;28;20029;-77
2022/10/28 08:27:33;;;;;;;15.30;8.27;;;;;;;14.00;45.58;95148.47;5030622;28;20031;-77
2022/10/28 08:29:59;;;;;;;13.07;7.93;;;;;;;14.08;45.24;95146.97;5032206;28;20642;-77
2022/10/28 08:32:24;;;;;;;14.38;9.35;;;;;;;14.24;45.04;95161.56;5031382;28;20079;-77
2022/10/28 08:34:49;;;;;;;20.38;9.90;;;;;;;14.05;45.74;95134.16;5033317;28;20162;-77
2022/10/28 08:37:15;;;;;;;13.23;8.65;;;;;;;14.29;45.55;95160.63;5030065;28;20488;-78
2022/10/28 08:39:40;;;;;;;13.88;8.35;;;;;;;14.28;45.11;95153.69;5031083;28;20040;-78
2022/10/28 08:42:25;;;;;;;15.15;7.82;;;;;;;14.33;44.92;95156.25;5029586;28;20481;-77
2022/10/28 08:45:04;;;;;;;19.30;8.55;;;;;;;14.38;45.39;95154.25;5031927;28;20116;-78
2022/10/28 08:47:29;;;;;;;27.77;8.30;;;;;;;14.29;45.19;95156.06;5031481;28;20032;-78
2022/10/28 08:50:00;;;;;;;19.45;9.77;;;;;;;14.40;45.10;95145.94;5032671;28;20552;-77
2022/10/28 08:52:48;;;;;;;12.13;6.68;;;;;;;14.56;44.94;95150.66;5027616;28;20473;-77
2022/10/28 08:55:18;;;;;;;12.60;6.82;;;;;;;14.35;44.89;95144.16;5032080;28;20118;-77
2022/10/28 08:57:57;;;;;;;13.80;6.90;;;;;;;14.43;44.90;95124.69;5029663;28;20041;-77
2022/10/28 09:00:29;;;;;;;11.48;6.38;;;;;;;14.53;44.62;95143.22;5014363;28;20139;-78
2022/10/28 09:03:07;;;;;;;13.82;6.38;;;;;;;14.63;44.59;95127.97;5033455;28;20459;-77
2022/10/28 09:05:32;;;;;;;18.38;7.18;;;;;;;14.69;44.49;95126.75;5034431;28;20043;-77
2022/10/28 09:08:00;;;;;;;10.15;6.53;;;;;;;14.48;44.14;95105.81;5035115;28;20028;-77
2022/10/28 09:10:31;;;;;;;10.90;6.70;;;;;;;14.65;44.57;95136.50;5033548;28;20493;-77
2022/10/28 09:13:10;;;;;;;9.45;5.18;;;;;;;14.65;44.65;95131.16;5034457;28;20281;-77
2022/10/28 09:16:02;;;;;;;15.68;5.60;;;;;;;14.73;44.26;95127.72;5035094;28;20595;-77
2022/10/28 09:18:48;;;;;;;10.98;5.75;;;;;;;14.59;44.83;95128.59;5036191;28;20512;-77
2022/10/28 09:21:39;;;;;;;11.15;4.95;;;;;;;14.65;44.61;95123.91;5036032;28;20477;-77
2022/10/28 09:24:18;;;;;;;20.65;5.55;;;;;;;14.84;44.00;95107.63;5031518;28;20045;-78
2022/10/28 09:26:46;;;;;;;7.60;4.75;;;;;;;15.13;43.98;95123.97;5035362;28;20033;-76
2022/10/28 09:29:38;;;;;;;13.52;5.20;;;;;;;15.20;43.87;95116.28;5035548;28;20055;-78
2022/10/28 09:32:31;;;;;;;15.07;6.10;;;;;;;15.20;43.87;95108.25;5010726;28;20342;-78
2022/10/28 09:35:19;;;;;;;6.35;4.75;;;;;;;15.05;43.23;95079.19;5016235;28;20017;-78
2022/10/28 09:37:49;;;;;;;11.13;4.95;;;;;;;15.27;43.22;95107.78;5030175;28;20164;-77
2022/10/28 09:40:28;;;;;;;6.95;5.35;;;;;;;15.45;43.48;95099.50;5033892;28;20021;-77
2022/10/28 09:42:56;;;;;;;8.57;5.38;;;;;;;15.35;43.00;95099.75;5026146;28;20060;-78
2022/10/28 09:45:27;;;;;;;11.68;5.95;;;;;;;15.38;42.59;95068.88;5033895;28;20458;-78
2022/10/28 09:48:20;;;;;;;8.73;4.78;;;;;;;15.75;42.38;95094.34;5031486;28;20618;-76
2022/10/28 09:50:49;;;;;;;7.13;4.50;;;;;;;15.80;42.71;95086.13;5022388;28;20139;-77
2022/10/28 09:53:41;;;;;;;7.70;5.10;;;;;;;15.65;42.16;95030.28;5008372;28;20374;-78
2022/10/28 09:56:08;;;;;;;10.77;5.70;;;;;;;15.59;41.87;95053.00;5034711;28;20131;-76
2022/10/28 09:58:33;;;;;;;12.55;5.60;;;;;;;15.86;41.96;95069.59;5034876;28;20068;-77
2022/10/28 10:00:59;;;;;;;11.07;5.50;;;;;;;16.06;41.51;95076.22;5031497;28;20528;-77
2022/10/28 10:03:25;;;;;;;10.25;5.93;;;;;;;15.58;41.48;95017.34;5033088;28;20092;-77
2022/10/28 10:05:53;;;;;;;13.52;6.22;;;;;;;15.97;41.21;95056.66;5030180;28;20024;-77
2022/10/28 10:08:20;;;;;;;15.18;5.75;;;;;;;15.90;40.91;95013.38;5034911;28;20025;-77
2022/10/28 10:10:51;;;;;;;10.13;6.05;;;;;;;16.33;40.93;95070.50;5015014;28;20025;-78
2022/10/28 10:13:20;;;;;;;11.55;5.45;;;;;;;16.18;40.96;95049.50;5033572;28;20052;-77
2022/10/28 10:15:51;;;;;;;7.60;5.05;;;;;;;16.28;40.46;95062.59;5032314;28;20036;-78
2022/10/28 10:18:22;;;;;;;7.80;5.40;;;;;;;16.35;40.53;95064.81;5030027;28;20025;-77
2022/10/28 10:20:57;;;;;;;6.78;4.57;;;;;;;16.45;40.06;95055.66;5007496;28;20071;-78
2022/10/28 10:23:27;;;;;;;10.85;4.22;;;;;;;16.45;40.14;95047.59;5014110;28;20555;-77
2022/10/28 10:25:58;;;;;;;11.93;3.70;;;;;;;16.57;39.94;95050.41;5033938;28;20172;-77
2022/10/28 10:28:26;;;;;;;8.52;4.30;;;;;;;16.41;39.76;95014.44;5032743;28;20293;-77
2022/10/28 10:30:54;;;;;;;11.13;4.10;;;;;;;16.36;40.17;94995.81;5018076;28;20411;-76
2022/10/28 10:33:24;;;;;;;8.85;4.22;;;;;;;16.77;39.46;95030.88;5034293;28;20155;-78
2022/10/28 10:35:57;;;;;;;3.83;2.92;;;;;;;16.89;39.51;95044.44;5035195;28;20029;-77
2022/10/28 10:38:22;;;;;;;7.43;3.90;;;;;;;16.64;39.28;95030.00;5035907;28;20079;-77
2022/10/28 10:40:51;;;;;;;6.30;3.75;;;;;;;16.88;39.39;95034.00;5034827;28;20028;-77
2022/10/28 10:43:16;;;;;;;20.70;14.25;;;;;;;16.89;39.20;95036.38;5019538;28;20033;-78
2022/10/28 10:45:52;;;;;;;9.23;6.43;;;;;;;16.84;39.09;95006.22;5028826;28;20425;-77
2022/10/28 10:48:18;;;;;;;24.83;12.70;;;;;;;16.91;38.93;95022.63;5037240;28;20067;-77
2022/10/28 10:50:48;;;;;;;10.50;5.90;;;;;;;16.94;39.20;95017.38;5017277;28;20123;-77
2022/10/28 10:53:29;;;;;;;10.75;5.55;;;;;;;17.22;38.92;95027.69;5019384;28;20401;-77
2022/10/28 10:56:00;;;;;;;53.33;26.00;;;;;;;17.36;38.55;95022.84;5036275;28;20542;-77
2022/10/28 10:58:39;;;;;;;10.73;5.85;;;;;;;17.42;38.57;95021.56;5035417;28;20492;-78
2022/10/28 11:01:06;;;;;;;4.55;3.20;;;;;;;17.24;38.40;94996.69;5035694;28;20492;-77
2022/10/28 11:03:49;;;;;;;5.65;2.35;;;;;;;17.32;38.35;95016.56;5035630;28;20581;-76
2022/10/28 11:06:24;;;;;;;40.25;17.50;;;;;;;17.41;38.31;95009.22;5036145;28;20112;-77
2022/10/28 11:08:57;;;;;;;511.92;264.40;;;;;;;17.54;37.83;95000.13;5036331;28;20036;-76
2022/10/28 11:11:32;;;;;;;115.03;51.00;;;;;;;17.59;37.68;94984.59;5034879;28;20121;-77
2022/10/28 11:14:04;;;;;;;8.73;4.97;;;;;;;17.56;39.76;94979.06;5037078;28;20029;-77
2022/10/28 11:16:29;;;;;;;6.13;4.43;;;;;;;17.72;37.64;94998.88;5033485;28;20049;-77
2022/10/28 11:18:54;;;;;;;3.08;2.40;;;;;;;17.56;37.27;95005.94;5036494;28;20589;-76
2022/10/28 11:21:46;;;;;;;5.55;2.55;;;;;;;17.50;36.47;94999.22;5035209;28;20029;-77
2022/10/28 11:24:51;;;;;;;7.47;3.80;;;;;;;17.78;36.44;94996.75;5032831;28;20640;-78
2022/10/28 11:27:38;;;;;;;8.38;3.53;;;;;;;17.84;35.84;94996.25;5035584;28;20056;-77
2022/10/28 11:30:09;;;;;;;3.30;2.20;;;;;;;17.81;34.22;94974.56;5037219;28;20492;-77
2022/10/28 11:32:44;;;;;;;5.18;1.88;;;;;;;17.88;32.14;94986.38;5034791;28;20032;-77
2022/10/28 11:35:15;;;;;;;3.35;1.50;;;;;;;17.94;32.54;94990.47;5035361;28;20025;-77
2022/10/28 11:37:46;;;;;;;8.07;2.22;;;;;;;18.03;32.53;94977.72;5035284;28;20029;-78
2022/10/28 11:40:57;;;;;;;2.85;2.05;;;;;;;17.65;30.67;94944.03;5036171;28;20032;-76
2022/10/28 11:43:41;;;;;;;8.82;4.72;;;;;;;17.80;31.67;94984.53;5036238;28;20029;-78